sensor_id;sensor_type;location;lat;lon;timestamp;pressure;altitude;pressure_sealevel;temperature;humidity
71105;BME280;58760;48.716;8.962;2023-05-18T00:01:57;97094.78;;;5.26;84.38
71105;BME280;58760;48.716;8.962;2023-05-18T00:04:23;97098.44;;;5.35;84.48
71105;BME280;58760;48.716;8.962;2023-05-18T00:06:50;97079.13;;;5.45;83.90
71105;BME280;58760;48.716;8.962;2023-05-18T00:09:26;97082.78;;;5.54;83.30
71105;BME280;58760;48.716;8.962;2023-05-18T00:11:52;97086.06;;;5.67;82.88
71105;BME280;58760;48.716;8.962;2023-05-18T00:14:18;97080.47;;;5.81;82.45
71105;BME280;58760;48.716;8.962;2023-05-18T00:16:44;97063.53;;;5.95;82.51
71105;BME280;58760;48.716;8.962;2023-05-18T00:19:09;97064.91;;;5.99;82.49
71105;BME280;58760;48.716;8.962;2023-05-18T00:21:35;97060.69;;;6.07;82.36
71105;BME280;58760;48.716;8.962;2023-05-18T00:24:00;97054.72;;;6.15;81.83
71105;BME280;58760;48.716;8.962;2023-05-18T00:26:26;97058.81;;;6.28;81.19
71105;BME280;58760;48.716;8.962;2023-05-18T00:28:51;97048.81;;;6.22;81.38
71105;BME280;58760;48.716;8.962;2023-05-18T00:31:16;97049.38;;;6.26;81.27
71105;BME280;58760;48.716;8.962;2023-05-18T00:33:42;97049.50;;;6.24;81.54
71105;BME280;58760;48.716;8.962;2023-05-18T00:36:09;97046.56;;;6.18;81.83
71105;BME280;58760;48.716;8.962;2023-05-18T00:38:35;97050.03;;;6.18;82.36
71105;BME280;58760;48.716;8.962;2023-05-18T00:41:01;97052.78;;;6.07;81.70
71105;BME280;58760;48.716;8.962;2023-05-18T00:43:26;97056.03;;;5.90;82.03
71105;BME280;58760;48.716;8.962;2023-05-18T00:45:51;97062.38;;;5.67;82.26
71105;BME280;58760;48.716;8.962;2023-05-18T00:48:17;97059.19;;;5.43;82.39
71105;BME280;58760;48.716;8.962;2023-05-18T00:50:42;97066.97;;;5.12;84.08
71105;BME280;58760;48.716;8.962;2023-05-18T00:53:07;97062.47;;;5.03;85.23
71105;BME280;58760;48.716;8.962;2023-05-18T00:55:35;97064.78;;;4.97;85.35
71105;BME280;58760;48.716;8.962;2023-05-18T00:58:00;97050.53;;;4.99;86.22
71105;BME280;58760;48.716;8.962;2023-05-18T01:00:26;97059.13;;;5.01;85.83
71105;BME280;58760;48.716;8.962;2023-05-18T01:02:52;97054.09;;;4.98;86.51
71105;BME280;58760;48.716;8.962;2023-05-18T01:05:18;97056.28;;;4.93;86.09
71105;BME280;58760;48.716;8.962;2023-05-18T01:07:44;97056.06;;;4.85;86.24
71105;BME280;58760;48.716;8.962;2023-05-18T01:10:11;97048.44;;;4.82;86.54
71105;BME280;58760;48.716;8.962;2023-05-18T01:12:55;97050.13;;;4.83;86.70
71105;BME280;58760;48.716;8.962;2023-05-18T01:15:26;97041.03;;;4.87;87.37
71105;BME280;58760;48.716;8.962;2023-05-18T01:18:10;97049.84;;;4.86;86.40
71105;BME280;58760;48.716;8.962;2023-05-18T01:26:16;97048.25;;;4.74;86.39
71105;BME280;58760;48.716;8.962;2023-05-18T01:28:49;97050.28;;;4.70;86.50
71105;BME280;58760;48.716;8.962;2023-05-18T01:31:16;97047.31;;;4.64;86.85
71105;BME280;58760;48.716;8.962;2023-05-18T01:33:42;97041.66;;;4.68;87.38
71105;BME280;58760;48.716;8.962;2023-05-18T01:36:08;97045.00;;;4.70;87.23
71105;BME280;58760;48.716;8.962;2023-05-18T01:38:33;97042.00;;;4.75;87.19
71105;BME280;58760;48.716;8.962;2023-05-18T01:43:48;97039.63;;;4.72;87.12
71105;BME280;58760;48.716;8.962;2023-05-18T01:48:51;97044.44;;;4.67;87.22
71105;BME280;58760;48.716;8.962;2023-05-18T01:51:19;97046.91;;;4.68;87.01
71105;BME280;58760;48.716;8.962;2023-05-18T01:53:53;97053.75;;;4.71;86.37
71105;BME280;58760;48.716;8.962;2023-05-18T01:56:22;97045.25;;;4.67;86.72
71105;BME280;58760;48.716;8.962;2023-05-18T01:58:48;97044.88;;;4.72;86.99
71105;BME280;58760;48.716;8.962;2023-05-18T02:01:14;97033.16;;;4.76;87.34
71105;BME280;58760;48.716;8.962;2023-05-18T02:03:44;97030.41;;;4.78;87.52
71105;BME280;58760;48.716;8.962;2023-05-18T02:06:09;97027.78;;;4.78;87.24
71105;BME280;58760;48.716;8.962;2023-05-18T02:08:35;97027.06;;;4.75;86.87
71105;BME280;58760;48.716;8.962;2023-05-18T02:11:01;97030.09;;;4.71;86.99
71105;BME280;58760;48.716;8.962;2023-05-18T02:13:26;97031.72;;;4.72;86.90
71105;BME280;58760;48.716;8.962;2023-05-18T02:15:51;97030.56;;;4.65;86.63
71105;BME280;58760;48.716;8.962;2023-05-18T02:18:17;97032.63;;;4.61;87.33
71105;BME280;58760;48.716;8.962;2023-05-18T02:20:42;97031.06;;;4.59;87.48
71105;BME280;58760;48.716;8.962;2023-05-18T02:23:08;97030.59;;;4.54;87.81
71105;BME280;58760;48.716;8.962;2023-05-18T02:25:33;97037.16;;;4.59;88.47
71105;BME280;58760;48.716;8.962;2023-05-18T02:27:58;97033.06;;;4.66;88.67
71105;BME280;58760;48.716;8.962;2023-05-18T02:30:24;97026.72;;;4.69;89.26
71105;BME280;58760;48.716;8.962;2023-05-18T02:32:50;97028.41;;;4.70;89.32
71105;BME280;58760;48.716;8.962;2023-05-18T02:35:16;97036.28;;;4.70;89.63
71105;BME280;58760;48.716;8.962;2023-05-18T02:37:44;97028.16;;;4.73;89.43
71105;BME280;58760;48.716;8.962;2023-05-18T02:40:12;97024.94;;;4.69;89.42
71105;BME280;58760;48.716;8.962;2023-05-18T02:42:38;97020.78;;;4.67;89.71
71105;BME280;58760;48.716;8.962;2023-05-18T02:45:04;97019.22;;;4.64;89.69
71105;BME280;58760;48.716;8.962;2023-05-18T02:47:30;97021.13;;;4.62;89.66
71105;BME280;58760;48.716;8.962;2023-05-18T02:49:55;97015.78;;;4.53;89.04
71105;BME280;58760;48.716;8.962;2023-05-18T02:52:21;97016.88;;;4.50;89.19
71105;BME280;58760;48.716;8.962;2023-05-18T02:54:46;97011.63;;;4.50;89.33
71105;BME280;58760;48.716;8.962;2023-05-18T02:57:11;97015.78;;;4.53;89.45
71105;BME280;58760;48.716;8.962;2023-05-18T02:59:38;97012.81;;;4.57;89.20
71105;BME280;58760;48.716;8.962;2023-05-18T03:02:04;97018.16;;;4.56;89.77
71105;BME280;58760;48.716;8.962;2023-05-18T03:04:29;97011.00;;;4.58;89.81
71105;BME280;58760;48.716;8.962;2023-05-18T03:06:54;97012.66;;;4.59;89.65
71105;BME280;58760;48.716;8.962;2023-05-18T03:09:21;97018.41;;;4.64;89.74
71105;BME280;58760;48.716;8.962;2023-05-18T03:11:47;97017.66;;;4.62;89.51
71105;BME280;58760;48.716;8.962;2023-05-18T03:14:12;97013.38;;;4.61;89.56
71105;BME280;58760;48.716;8.962;2023-05-18T03:16:38;97010.75;;;4.61;89.34
71105;BME280;58760;48.716;8.962;2023-05-18T03:19:03;97011.47;;;4.63;88.97
71105;BME280;58760;48.716;8.962;2023-05-18T03:21:29;97012.81;;;4.57;89.12
71105;BME280;58760;48.716;8.962;2023-05-18T03:23:58;97017.72;;;4.51;89.03
71105;BME280;58760;48.716;8.962;2023-05-18T03:26:24;97016.03;;;4.50;89.24
71105;BME280;58760;48.716;8.962;2023-05-18T03:28:50;97005.78;;;4.47;89.52
71105;BME280;58760;48.716;8.962;2023-05-18T03:31:16;97017.63;;;4.41;89.39
71105;BME280;58760;48.716;8.962;2023-05-18T03:33:41;97011.78;;;4.38;89.26
71105;BME280;58760;48.716;8.962;2023-05-18T03:36:07;97018.47;;;4.31;89.26
71105;BME280;58760;48.716;8.962;2023-05-18T03:38:32;97019.41;;;4.30;89.23
71105;BME280;58760;48.716;8.962;2023-05-18T03:40:57;97022.44;;;4.25;89.42
71105;BME280;58760;48.716;8.962;2023-05-18T03:43:23;97018.00;;;4.26;89.78
71105;BME280;58760;48.716;8.962;2023-05-18T03:45:50;97014.16;;;4.30;90.24
71105;BME280;58760;48.716;8.962;2023-05-18T03:48:15;97013.34;;;4.29;90.31
71105;BME280;58760;48.716;8.962;2023-05-18T03:50:41;97017.53;;;4.32;90.39
71105;BME280;58760;48.716;8.962;2023-05-18T03:53:07;97014.50;;;4.36;90.79
71105;BME280;58760;48.716;8.962;2023-05-18T03:55:34;97017.72;;;4.40;90.82
71105;BME280;58760;48.716;8.962;2023-05-18T03:57:59;97012.97;;;4.45;90.89
71105;BME280;58760;48.716;8.962;2023-05-18T04:00:25;97022.13;;;4.50;90.97
71105;BME280;58760;48.716;8.962;2023-05-18T04:02:50;97022.97;;;4.51;90.65
71105;BME280;58760;48.716;8.962;2023-05-18T04:05:16;97027.28;;;4.52;90.69
71105;BME280;58760;48.716;8.962;2023-05-18T04:07:41;97026.88;;;4.56;90.34
71105;BME280;58760;48.716;8.962;2023-05-18T04:10:11;97029.16;;;4.61;90.06
71105;BME280;58760;48.716;8.962;2023-05-18T04:12:37;97032.47;;;4.63;90.12
71105;BME280;58760;48.716;8.962;2023-05-18T04:15:03;97031.91;;;4.59;90.13
71105;BME280;58760;48.716;8.962;2023-05-18T04:17:29;97032.72;;;4.60;90.63
71105;BME280;58760;48.716;8.962;2023-05-18T04:19:54;97034.28;;;4.62;90.45
71105;BME280;58760;48.716;8.962;2023-05-18T04:22:20;97032.22;;;4.66;90.07
71105;BME280;58760;48.716;8.962;2023-05-18T04:24:47;97031.16;;;4.68;89.61
71105;BME280;58760;48.716;8.962;2023-05-18T04:27:13;97047.97;;;4.77;89.55
71105;BME280;58760;48.716;8.962;2023-05-18T04:29:38;97049.19;;;4.73;89.55
71105;BME280;58760;48.716;8.962;2023-05-18T04:32:08;97052.16;;;4.80;89.39
71105;BME280;58760;48.716;8.962;2023-05-18T04:34:35;97045.94;;;4.81;89.22
71105;BME280;58760;48.716;8.962;2023-05-18T04:37:04;97049.84;;;4.86;89.07
71105;BME280;58760;48.716;8.962;2023-05-18T04:39:31;97044.56;;;4.97;88.27
71105;BME280;58760;48.716;8.962;2023-05-18T04:41:57;97048.34;;;5.04;87.82
71105;BME280;58760;48.716;8.962;2023-05-18T04:44:31;97054.25;;;5.17;87.14
71105;BME280;58760;48.716;8.962;2023-05-18T04:47:00;97055.34;;;5.15;86.91
71105;BME280;58760;48.716;8.962;2023-05-18T04:49:26;97050.75;;;5.28;86.52
71105;BME280;58760;48.716;8.962;2023-05-18T04:51:54;97059.00;;;5.23;86.51
71105;BME280;58760;48.716;8.962;2023-05-18T04:54:24;97049.88;;;5.39;86.08
71105;BME280;58760;48.716;8.962;2023-05-18T04:56:51;97053.00;;;5.33;86.27
71105;BME280;58760;48.716;8.962;2023-05-18T04:59:17;97054.41;;;5.37;86.39
71105;BME280;58760;48.716;8.962;2023-05-18T05:01:43;97055.78;;;5.52;85.50
71105;BME280;58760;48.716;8.962;2023-05-18T05:04:09;97060.63;;;5.56;85.45
71105;BME280;58760;48.716;8.962;2023-05-18T05:06:34;97061.53;;;5.66;85.18
71105;BME280;58760;48.716;8.962;2023-05-18T05:08:59;97064.47;;;5.73;84.26
71105;BME280;58760;48.716;8.962;2023-05-18T05:11:25;97062.31;;;5.78;84.29
71105;BME280;58760;48.716;8.962;2023-05-18T05:13:50;97065.13;;;5.86;84.02
71105;BME280;58760;48.716;8.962;2023-05-18T05:16:15;97052.31;;;6.02;82.79
71105;BME280;58760;48.716;8.962;2023-05-18T05:18:41;97061.91;;;6.03;83.25
71105;BME280;58760;48.716;8.962;2023-05-18T05:21:07;97062.91;;;6.12;82.82
71105;BME280;58760;48.716;8.962;2023-05-18T05:23:33;97058.53;;;6.31;81.38
71105;BME280;58760;48.716;8.962;2023-05-18T05:25:58;97060.50;;;6.39;80.82
71105;BME280;58760;48.716;8.962;2023-05-18T05:28:23;97056.94;;;6.50;80.40
71105;BME280;58760;48.716;8.962;2023-05-18T05:30:49;97053.06;;;6.63;79.63
71105;BME280;58760;48.716;8.962;2023-05-18T05:33:14;97053.53;;;6.68;78.92
71105;BME280;58760;48.716;8.962;2023-05-18T05:35:40;97053.53;;;6.78;78.69
71105;BME280;58760;48.716;8.962;2023-05-18T05:38:05;97059.50;;;6.90;77.22
71105;BME280;58760;48.716;8.962;2023-05-18T05:40:31;97055.34;;;6.97;76.72
71105;BME280;58760;48.716;8.962;2023-05-18T05:42:57;97049.25;;;7.06;75.82
71105;BME280;58760;48.716;8.962;2023-05-18T05:45:22;97056.34;;;7.05;76.25
71105;BME280;58760;48.716;8.962;2023-05-18T05:47:48;97059.56;;;7.18;75.69
71105;BME280;58760;48.716;8.962;2023-05-18T05:50:13;97051.75;;;7.26;75.01
71105;BME280;58760;48.716;8.962;2023-05-18T05:52:38;97049.66;;;7.30;74.68
71105;BME280;58760;48.716;8.962;2023-05-18T05:55:04;97049.25;;;7.34;74.92
71105;BME280;58760;48.716;8.962;2023-05-18T05:57:29;97048.81;;;7.49;74.08
71105;BME280;58760;48.716;8.962;2023-05-18T05:59:55;97053.25;;;7.58;74.95
71105;BME280;58760;48.716;8.962;2023-05-18T06:02:20;97057.56;;;7.59;73.41
71105;BME280;58760;48.716;8.962;2023-05-18T06:04:46;97052.81;;;7.72;72.27
71105;BME280;58760;48.716;8.962;2023-05-18T06:07:11;97052.53;;;7.75;72.32
71105;BME280;58760;48.716;8.962;2023-05-18T06:09:37;97054.00;;;7.87;71.85
71105;BME280;58760;48.716;8.962;2023-05-18T06:12:03;97051.34;;;7.97;71.25
71105;BME280;58760;48.716;8.962;2023-05-18T06:14:29;97057.41;;;8.16;70.13
71105;BME280;58760;48.716;8.962;2023-05-18T06:16:54;97054.03;;;8.24;69.53
71105;BME280;58760;48.716;8.962;2023-05-18T06:19:20;97054.19;;;8.22;70.13
71105;BME280;58760;48.716;8.962;2023-05-18T06:21:45;97053.19;;;8.33;70.11
71105;BME280;58760;48.716;8.962;2023-05-18T06:24:10;97056.66;;;8.33;69.57
71105;BME280;58760;48.716;8.962;2023-05-18T06:26:36;97048.09;;;8.49;68.26
71105;BME280;58760;48.716;8.962;2023-05-18T06:29:01;97051.28;;;8.53;68.31
71105;BME280;58760;48.716;8.962;2023-05-18T06:31:27;97060.16;;;8.61;68.98
71105;BME280;58760;48.716;8.962;2023-05-18T06:33:52;97052.84;;;8.73;69.15
71105;BME280;58760;48.716;8.962;2023-05-18T06:36:18;97047.25;;;8.76;68.53
71105;BME280;58760;48.716;8.962;2023-05-18T06:38:43;97056.63;;;8.88;67.51
71105;BME280;58760;48.716;8.962;2023-05-18T06:41:08;97046.75;;;8.90;66.78
71105;BME280;58760;48.716;8.962;2023-05-18T06:43:34;97041.47;;;8.90;66.56
71105;BME280;58760;48.716;8.962;2023-05-18T06:45:59;97050.38;;;8.89;66.91
71105;BME280;58760;48.716;8.962;2023-05-18T06:48:26;97054.69;;;9.08;66.13
71105;BME280;58760;48.716;8.962;2023-05-18T06:50:52;97044.63;;;9.11;67.01
71105;BME280;58760;48.716;8.962;2023-05-18T06:53:18;97047.75;;;9.24;66.71
71105;BME280;58760;48.716;8.962;2023-05-18T06:55:43;97053.94;;;9.51;66.02
71105;BME280;58760;48.716;8.962;2023-05-18T06:58:08;97056.88;;;9.48;64.93
71105;BME280;58760;48.716;8.962;2023-05-18T07:00:34;97048.94;;;9.48;65.96
71105;BME280;58760;48.716;8.962;2023-05-18T07:02:59;97054.34;;;9.64;65.11
71105;BME280;58760;48.716;8.962;2023-05-18T07:05:26;97055.34;;;9.63;64.91
71105;BME280;58760;48.716;8.962;2023-05-18T07:07:51;97050.88;;;9.63;65.48
71105;BME280;58760;48.716;8.962;2023-05-18T07:10:17;97054.13;;;9.75;65.56
71105;BME280;58760;48.716;8.962;2023-05-18T07:12:42;97062.22;;;9.73;66.25
71105;BME280;58760;48.716;8.962;2023-05-18T07:15:08;97052.22;;;9.85;65.43
71105;BME280;58760;48.716;8.962;2023-05-18T07:17:36;97062.84;;;9.93;66.14
71105;BME280;58760;48.716;8.962;2023-05-18T07:20:01;97059.13;;;10.04;65.39
71105;BME280;58760;48.716;8.962;2023-05-18T07:22:29;97058.09;;;10.22;63.87
71105;BME280;58760;48.716;8.962;2023-05-18T07:24:55;97059.75;;;10.23;64.39
71105;BME280;58760;48.716;8.962;2023-05-18T07:27:20;97053.78;;;10.21;63.65
71105;BME280;58760;48.716;8.962;2023-05-18T07:29:45;97056.72;;;10.18;63.71
71105;BME280;58760;48.716;8.962;2023-05-18T07:32:11;97058.50;;;10.35;63.63
71105;BME280;58760;48.716;8.962;2023-05-18T07:34:36;97050.94;;;10.48;64.41
71105;BME280;58760;48.716;8.962;2023-05-18T07:37:02;97063.22;;;10.58;63.76
71105;BME280;58760;48.716;8.962;2023-05-18T07:39:27;97055.00;;;10.77;63.01
71105;BME280;58760;48.716;8.962;2023-05-18T07:41:54;97067.50;;;10.92;63.07
71105;BME280;58760;48.716;8.962;2023-05-18T07:44:19;97060.22;;;10.94;61.52
71105;BME280;58760;48.716;8.962;2023-05-18T07:46:45;97058.34;;;10.87;61.75
71105;BME280;58760;48.716;8.962;2023-05-18T07:49:11;97060.88;;;10.88;61.24
71105;BME280;58760;48.716;8.962;2023-05-18T07:51:36;97055.22;;;10.91;61.98
71105;BME280;58760;48.716;8.962;2023-05-18T07:54:01;97057.09;;;11.07;62.48
71105;BME280;58760;48.716;8.962;2023-05-18T07:56:27;97048.81;;;11.18;60.49
71105;BME280;58760;48.716;8.962;2023-05-18T07:58:52;97047.91;;;10.93;61.75
71105;BME280;58760;48.716;8.962;2023-05-18T08:01:18;97048.47;;;11.13;63.60
71105;BME280;58760;48.716;8.962;2023-05-18T08:03:43;97047.00;;;11.35;62.98
71105;BME280;58760;48.716;8.962;2023-05-18T08:06:08;97044.00;;;11.30;60.96
71105;BME280;58760;48.716;8.962;2023-05-18T08:08:34;97046.69;;;11.46;59.87
71105;BME280;58760;48.716;8.962;2023-05-18T08:11:03;97049.81;;;11.57;59.94
71105;BME280;58760;48.716;8.962;2023-05-18T08:13:29;97048.50;;;11.62;59.73
71105;BME280;58760;48.716;8.962;2023-05-18T08:15:54;97044.88;;;11.79;60.14
71105;BME280;58760;48.716;8.962;2023-05-18T08:18:20;97045.88;;;11.86;59.71
71105;BME280;58760;48.716;8.962;2023-05-18T08:20:46;97051.19;;;11.86;60.53
71105;BME280;58760;48.716;8.962;2023-05-18T08:23:12;97048.31;;;12.03;58.91
71105;BME280;58760;48.716;8.962;2023-05-18T08:25:37;97054.81;;;12.01;58.26
71105;BME280;58760;48.716;8.962;2023-05-18T08:28:03;97042.16;;;12.19;57.03
71105;BME280;58760;48.716;8.962;2023-05-18T08:30:28;97051.28;;;12.25;59.31
71105;BME280;58760;48.716;8.962;2023-05-18T08:32:54;97034.47;;;12.24;56.91
71105;BME280;58760;48.716;8.962;2023-05-18T08:35:20;97034.44;;;12.32;57.05
71105;BME280;58760;48.716;8.962;2023-05-18T08:37:45;97032.47;;;12.34;57.57
71105;BME280;58760;48.716;8.962;2023-05-18T08:40:11;97026.75;;;12.45;56.51
71105;BME280;58760;48.716;8.962;2023-05-18T08:42:42;97026.16;;;12.35;58.02
71105;BME280;58760;48.716;8.962;2023-05-18T08:45:17;97025.41;;;12.49;57.14
71105;BME280;58760;48.716;8.962;2023-05-18T08:47:46;97028.41;;;12.54;57.02
71105;BME280;58760;48.716;8.962;2023-05-18T08:50:14;97018.31;;;12.73;55.10
71105;BME280;58760;48.716;8.962;2023-05-18T08:52:49;97017.53;;;12.64;55.38
71105;BME280;58760;48.716;8.962;2023-05-18T08:55:16;97007.72;;;12.65;55.39
71105;BME280;58760;48.716;8.962;2023-05-18T08:57:45;97019.19;;;12.65;56.21
71105;BME280;58760;48.716;8.962;2023-05-18T09:00:14;97013.47;;;12.76;53.68
71105;BME280;58760;48.716;8.962;2023-05-18T09:02:40;97017.22;;;12.90;55.46
71105;BME280;58760;48.716;8.962;2023-05-18T09:05:06;97009.16;;;13.06;55.39
71105;BME280;58760;48.716;8.962;2023-05-18T09:07:32;97008.41;;;13.20;52.64
71105;BME280;58760;48.716;8.962;2023-05-18T09:09:59;97011.50;;;13.32;52.50
71105;BME280;58760;48.716;8.962;2023-05-18T09:12:25;97009.00;;;13.30;52.60
71105;BME280;58760;48.716;8.962;2023-05-18T09:14:53;97013.91;;;13.41;53.31
71105;BME280;58760;48.716;8.962;2023-05-18T09:17:19;97016.28;;;13.36;51.67
71105;BME280;58760;48.716;8.962;2023-05-18T09:19:47;97005.69;;;13.66;51.53
71105;BME280;58760;48.716;8.962;2023-05-18T09:22:15;97002.03;;;13.67;52.45
71105;BME280;58760;48.716;8.962;2023-05-18T09:24:41;97015.41;;;13.81;52.59
71105;BME280;58760;48.716;8.962;2023-05-18T09:27:06;97011.34;;;13.85;51.24
71105;BME280;58760;48.716;8.962;2023-05-18T09:29:32;97010.59;;;14.14;50.62
71105;BME280;58760;48.716;8.962;2023-05-18T09:32:01;97016.88;;;14.36;51.28
71105;BME280;58760;48.716;8.962;2023-05-18T09:34:38;97006.50;;;14.77;50.54
71105;BME280;58760;48.716;8.962;2023-05-18T09:37:04;97008.38;;;14.61;49.71
71105;BME280;58760;48.716;8.962;2023-05-18T09:39:30;97009.13;;;14.55;47.58
71105;BME280;58760;48.716;8.962;2023-05-18T09:41:55;97002.41;;;14.59;46.79
71105;BME280;58760;48.716;8.962;2023-05-18T09:44:35;97009.75;;;14.57;47.85
71105;BME280;58760;48.716;8.962;2023-05-18T09:47:01;96999.22;;;14.85;46.40
71105;BME280;58760;48.716;8.962;2023-05-18T09:49:28;97010.31;;;14.82;47.01
71105;BME280;58760;48.716;8.962;2023-05-18T09:51:56;97005.69;;;15.12;48.23
71105;BME280;58760;48.716;8.962;2023-05-18T09:54:21;96996.81;;;15.47;46.83
71105;BME280;58760;48.716;8.962;2023-05-18T09:56:48;96991.06;;;15.72;48.70
71105;BME280;58760;48.716;8.962;2023-05-18T09:59:14;96997.91;;;15.81;45.20
71105;BME280;58760;48.716;8.962;2023-05-18T10:02:00;96998.28;;;15.50;45.33
71105;BME280;58760;48.716;8.962;2023-05-18T10:04:42;96994.13;;;15.26;44.95
71105;BME280;58760;48.716;8.962;2023-05-18T10:07:15;96986.38;;;15.31;46.28
71105;BME280;58760;48.716;8.962;2023-05-18T10:09:42;96988.38;;;15.29;44.56
71105;BME280;58760;48.716;8.962;2023-05-18T10:12:16;96986.03;;;15.19;45.76
71105;BME280;58760;48.716;8.962;2023-05-18T10:14:43;96991.06;;;15.08;46.20
71105;BME280;58760;48.716;8.962;2023-05-18T10:17:10;96981.41;;;15.49;45.43
71105;BME280;58760;48.716;8.962;2023-05-18T10:19:37;96979.91;;;15.68;45.65
71105;BME280;58760;48.716;8.962;2023-05-18T10:22:04;96982.06;;;15.79;45.27
71105;BME280;58760;48.716;8.962;2023-05-18T10:24:30;96991.56;;;15.82;44.82
71105;BME280;58760;48.716;8.962;2023-05-18T10:27:00;96981.72;;;15.89;43.75
71105;BME280;58760;48.716;8.962;2023-05-18T10:29:28;96966.06;;;15.86;46.02
71105;BME280;58760;48.716;8.962;2023-05-18T10:31:54;96974.81;;;16.01;45.43
71105;BME280;58760;48.716;8.962;2023-05-18T10:34:26;96969.16;;;16.17;44.95
71105;BME280;58760;48.716;8.962;2023-05-18T10:36:52;96973.16;;;16.34;44.69
71105;BME280;58760;48.716;8.962;2023-05-18T10:39:18;96975.78;;;16.21;43.33
71105;BME280;58760;48.716;8.962;2023-05-18T10:41:44;96977.56;;;16.14;42.96
71105;BME280;58760;48.716;8.962;2023-05-18T10:44:10;96969.47;;;16.01;43.25
71105;BME280;58760;48.716;8.962;2023-05-18T10:46:35;96967.56;;;16.29;43.55
71105;BME280;58760;48.716;8.962;2023-05-18T10:49:03;96967.03;;;16.47;42.86
71105;BME280;58760;48.716;8.962;2023-05-18T10:51:30;96971.25;;;16.21;44.29
71105;BME280;58760;48.716;8.962;2023-05-18T10:54:09;96959.84;;;16.47;43.33
71105;BME280;58760;48.716;8.962;2023-05-18T10:56:36;96950.53;;;16.78;44.14
71105;BME280;58760;48.716;8.962;2023-05-18T10:59:05;96957.53;;;16.85;43.50
71105;BME280;58760;48.716;8.962;2023-05-18T11:01:31;96953.66;;;17.01;41.65
71105;BME280;58760;48.716;8.962;2023-05-18T11:04:03;96955.47;;;16.81;41.61
71105;BME280;58760;48.716;8.962;2023-05-18T11:06:28;96947.50;;;17.00;40.76
71105;BME280;58760;48.716;8.962;2023-05-18T11:08:54;96956.19;;;17.15;40.98
71105;BME280;58760;48.716;8.962;2023-05-18T11:11:22;96951.81;;;17.08;39.49
71105;BME280;58760;48.716;8.962;2023-05-18T11:13:49;96946.47;;;17.08;39.56
71105;BME280;58760;48.716;8.962;2023-05-18T11:16:15;96956.75;;;17.04;40.64
71105;BME280;58760;48.716;8.962;2023-05-18T11:18:43;96949.78;;;17.10;41.13
71105;BME280;58760;48.716;8.962;2023-05-18T11:24:13;96951.50;;;17.63;41.75
71105;BME280;58760;48.716;8.962;2023-05-18T11:26:43;96948.63;;;17.85;40.06
71105;BME280;58760;48.716;8.962;2023-05-18T11:29:44;96946.31;;;17.49;39.01
71105;BME280;58760;48.716;8.962;2023-05-18T11:32:25;96951.50;;;17.76;40.10
71105;BME280;58760;48.716;8.962;2023-05-18T11:34:52;96949.22;;;18.00;38.92
71105;BME280;58760;48.716;8.962;2023-05-18T11:40:42;96943.91;;;18.57;35.15
71105;BME280;58760;48.716;8.962;2023-05-18T11:42:57;96941.81;;;18.72;36.97
71105;BME280;58760;48.716;8.962;2023-05-18T11:45:24;96932.63;;;19.24;36.23
71105;BME280;58760;48.716;8.962;2023-05-18T11:47:55;96940.41;;;19.32;36.32
71105;BME280;58760;48.716;8.962;2023-05-18T11:50:26;96935.03;;;19.64;35.81
71105;BME280;58760;48.716;8.962;2023-05-18T11:52:51;96933.19;;;20.32;35.70
71105;BME280;58760;48.716;8.962;2023-05-18T11:55:18;96929.69;;;20.79;33.38
71105;BME280;58760;48.716;8.962;2023-05-18T11:57:47;96932.03;;;21.24;31.63
71105;BME280;58760;48.716;8.962;2023-05-18T12:00:13;96924.59;;;21.61;31.76
71105;BME280;58760;48.716;8.962;2023-05-18T12:02:44;96924.09;;;21.41;31.44
71105;BME280;58760;48.716;8.962;2023-05-18T12:05:10;96915.00;;;21.76;33.28
71105;BME280;58760;48.716;8.962;2023-05-18T12:07:37;96920.41;;;22.46;32.44
71105;BME280;58760;48.716;8.962;2023-05-18T12:10:06;96903.91;;;22.59;31.09
71105;BME280;58760;48.716;8.962;2023-05-18T12:12:33;96914.25;;;23.02;31.55
71105;BME280;58760;48.716;8.962;2023-05-18T12:15:00;96907.06;;;23.08;30.48
71105;BME280;58760;48.716;8.962;2023-05-18T12:17:39;96898.84;;;23.03;31.24
71105;BME280;58760;48.716;8.962;2023-05-18T12:20:10;96896.84;;;23.26;30.67
71105;BME280;58760;48.716;8.962;2023-05-18T12:22:37;96896.41;;;23.79;29.56
71105;BME280;58760;48.716;8.962;2023-05-18T12:25:03;96900.19;;;23.78;29.87
71105;BME280;58760;48.716;8.962;2023-05-18T12:27:28;96898.44;;;24.22;30.42
71105;BME280;58760;48.716;8.962;2023-05-18T12:29:54;96893.69;;;24.73;27.39
71105;BME280;58760;48.716;8.962;2023-05-18T12:32:20;96892.94;;;24.17;27.77
71105;BME280;58760;48.716;8.962;2023-05-18T12:34:45;96893.38;;;23.14;28.25
71105;BME280;58760;48.716;8.962;2023-05-18T12:37:10;96901.41;;;21.95;31.33
71105;BME280;58760;48.716;8.962;2023-05-18T12:39:36;96907.59;;;21.83;31.49
71105;BME280;58760;48.716;8.962;2023-05-18T12:42:12;96894.34;;;22.17;30.77
71105;BME280;58760;48.716;8.962;2023-05-18T12:44:40;96895.63;;;22.77;30.57
71105;BME280;58760;48.716;8.962;2023-05-18T12:47:12;96890.25;;;23.51;31.29
71105;BME280;58760;48.716;8.962;2023-05-18T12:49:40;96889.56;;;22.99;30.39
71105;BME280;58760;48.716;8.962;2023-05-18T12:52:13;96892.91;;;22.26;29.50
71105;BME280;58760;48.716;8.962;2023-05-18T12:54:49;96900.19;;;21.14;32.56
71105;BME280;58760;48.716;8.962;2023-05-18T12:57:20;96890.84;;;21.40;32.50
71105;BME280;58760;48.716;8.962;2023-05-18T12:59:49;96890.22;;;21.68;33.31
71105;BME280;58760;48.716;8.962;2023-05-18T13:02:35;96885.19;;;22.58;30.32
71105;BME280;58760;48.716;8.962;2023-05-18T13:05:06;96890.69;;;21.23;31.91
71105;BME280;58760;48.716;8.962;2023-05-18T13:07:40;96903.28;;;20.70;33.04
71105;BME280;58760;48.716;8.962;2023-05-18T13:12:44;96890.94;;;21.22;32.99
71105;BME280;58760;48.716;8.962;2023-05-18T13:20:13;96893.28;;;20.16;33.11
71105;BME280;58760;48.716;8.962;2023-05-18T13:22:39;96899.50;;;19.98;34.18
71105;BME280;58760;48.716;8.962;2023-05-18T13:25:05;96883.09;;;21.02;33.22
71105;BME280;58760;48.716;8.962;2023-05-18T13:27:31;96875.16;;;22.18;31.35
71105;BME280;58760;48.716;8.962;2023-05-18T13:29:56;96876.56;;;22.21;31.59